In Rescue
 
Open Full Screen Window  High Contrast Mode
July 23, 2019 12:58 AM EDT
Weather Information
Wind Direction
  ---
Wind Speed
  00 kt (0 mph)
Wind Gust
  00 kt (0 mph)
Altimeter
30.05 in
Visibility
---
Temperature
12° C
54° F
Dewpoint
11° C
52° F
Humidity
94%
Sky Condition
Missing

METAR KACB 230458Z AUTO 00000KT 12/11 A3005 RMK AO2 T01230114 PWINO

FAA Disclaimer: The data displayed is for advisory purposes only and is not to be used for flight planning or operations.
Missing Cloud Data